sensor_id;sensor_type;location;lat;lon;timestamp;pressure;altitude;pressure_sealevel;temperature;humidity
78431;BME280;67727;50.236;22.452;2023-03-04T00:00:04;99622.19;;;0.72;72.16
78431;BME280;67727;50.236;22.452;2023-03-04T00:02:51;99620.23;;;0.74;72.14
78431;BME280;67727;50.236;22.452;2023-03-04T00:05:18;99620.40;;;0.74;72.11
78431;BME280;67727;50.236;22.452;2023-03-04T00:07:45;99617.67;;;0.74;72.07
78431;BME280;67727;50.236;22.452;2023-03-04T00:10:12;99612.61;;;0.72;72.23
78431;BME280;67727;50.236;22.452;2023-03-04T00:12:40;99605.36;;;0.71;72.20
78431;BME280;67727;50.236;22.452;2023-03-04T00:15:07;99596.48;;;0.67;72.22
78431;BME280;67727;50.236;22.452;2023-03-04T00:17:34;99591.30;;;0.64;72.28
78431;BME280;67727;50.236;22.452;2023-03-04T00:20:02;99591.73;;;0.59;72.41
78431;BME280;67727;50.236;22.452;2023-03-04T00:22:29;99590.52;;;0.54;72.46
78431;BME280;67727;50.236;22.452;2023-03-04T00:24:56;99587.82;;;0.53;72.56
78431;BME280;67727;50.236;22.452;2023-03-04T00:27:23;99579.70;;;0.54;72.40
78431;BME280;67727;50.236;22.452;2023-03-04T00:29:50;99581.49;;;0.58;72.18
78431;BME280;67727;50.236;22.452;2023-03-04T00:32:17;99576.52;;;0.62;72.20
78431;BME280;67727;50.236;22.452;2023-03-04T00:34:44;99571.31;;;0.64;72.01
78431;BME280;67727;50.236;22.452;2023-03-04T00:37:12;99569.48;;;0.63;71.88
78431;BME280;67727;50.236;22.452;2023-03-04T00:39:39;99565.60;;;0.61;71.83
78431;BME280;67727;50.236;22.452;2023-03-04T00:42:06;99550.27;;;0.57;71.99
78431;BME280;67727;50.236;22.452;2023-03-04T00:44:33;99552.04;;;0.52;71.75
78431;BME280;67727;50.236;22.452;2023-03-04T00:47:00;99548.38;;;0.48;71.86
78431;BME280;67727;50.236;22.452;2023-03-04T00:49:27;99549.21;;;0.44;71.83
78431;BME280;67727;50.236;22.452;2023-03-04T00:51:54;99544.33;;;0.42;71.80
78431;BME280;67727;50.236;22.452;2023-03-04T00:54:21;99543.29;;;0.42;72.01
78431;BME280;67727;50.236;22.452;2023-03-04T00:56:48;99545.90;;;0.44;72.10
78431;BME280;67727;50.236;22.452;2023-03-04T00:59:15;99545.44;;;0.45;72.20
78431;BME280;67727;50.236;22.452;2023-03-04T01:01:42;99542.09;;;0.46;72.08
78431;BME280;67727;50.236;22.452;2023-03-04T01:04:10;99538.38;;;0.47;72.15
78431;BME280;67727;50.236;22.452;2023-03-04T01:06:37;99529.96;;;0.45;72.08
78431;BME280;67727;50.236;22.452;2023-03-04T01:09:04;99519.27;;;0.42;72.41
78431;BME280;67727;50.236;22.452;2023-03-04T01:11:31;99514.27;;;0.39;72.23
78431;BME280;67727;50.236;22.452;2023-03-04T01:13:58;99510.78;;;0.37;72.40
78431;BME280;67727;50.236;22.452;2023-03-04T01:16:25;99505.44;;;0.34;72.47
78431;BME280;67727;50.236;22.452;2023-03-04T01:18:52;99499.63;;;0.31;72.44
78431;BME280;67727;50.236;22.452;2023-03-04T01:21:19;99494.22;;;0.29;72.62
78431;BME280;67727;50.236;22.452;2023-03-04T01:23:46;99489.10;;;0.30;72.85
78431;BME280;67727;50.236;22.452;2023-03-04T01:26:13;99486.38;;;0.34;72.59
78431;BME280;67727;50.236;22.452;2023-03-04T01:28:40;99483.15;;;0.37;72.65
78431;BME280;67727;50.236;22.452;2023-03-04T01:31:08;99481.65;;;0.41;72.52
78431;BME280;67727;50.236;22.452;2023-03-04T01:33:35;99479.27;;;0.42;72.55
78431;BME280;67727;50.236;22.452;2023-03-04T01:36:02;99480.17;;;0.42;72.44
78431;BME280;67727;50.236;22.452;2023-03-04T01:38:29;99480.50;;;0.40;72.51
78431;BME280;67727;50.236;22.452;2023-03-04T01:40:56;99476.68;;;0.38;72.41
78431;BME280;67727;50.236;22.452;2023-03-04T01:43:27;99470.57;;;0.34;72.40
78431;BME280;67727;50.236;22.452;2023-03-04T01:45:55;99466.35;;;0.30;72.67
78431;BME280;67727;50.236;22.452;2023-03-04T01:48:29;99463.73;;;0.27;72.62
78431;BME280;67727;50.236;22.452;2023-03-04T01:50:57;99459.38;;;0.23;72.54
78431;BME280;67727;50.236;22.452;2023-03-04T01:53:31;99455.33;;;0.21;72.76
78431;BME280;67727;50.236;22.452;2023-03-04T01:56:29;99459.63;;;0.24;72.65
78431;BME280;67727;50.236;22.452;2023-03-04T01:59:14;99455.36;;;0.28;72.71
78431;BME280;67727;50.236;22.452;2023-03-04T02:01:48;99460.09;;;0.32;72.59
78431;BME280;67727;50.236;22.452;2023-03-04T02:04:17;99460.48;;;0.34;72.67
78431;BME280;67727;50.236;22.452;2023-03-04T02:06:47;99463.75;;;0.32;72.47
78431;BME280;67727;50.236;22.452;2023-03-04T02:09:16;99460.69;;;0.29;72.52
78431;BME280;67727;50.236;22.452;2023-03-04T02:11:44;99456.95;;;0.25;72.59
78431;BME280;67727;50.236;22.452;2023-03-04T02:14:12;99454.89;;;0.22;72.65
78431;BME280;67727;50.236;22.452;2023-03-04T02:16:41;99452.74;;;0.19;72.86
78431;BME280;67727;50.236;22.452;2023-03-04T02:21:46;99450.00;;;0.14;73.20
78431;BME280;67727;50.236;22.452;2023-03-04T02:24:24;99445.59;;;0.10;73.10
78431;BME280;67727;50.236;22.452;2023-03-04T02:26:52;99440.73;;;0.08;73.08
78431;BME280;67727;50.236;22.452;2023-03-04T02:29:20;99439.52;;;0.08;72.93
78431;BME280;67727;50.236;22.452;2023-03-04T02:31:49;99439.96;;;0.11;72.77
78431;BME280;67727;50.236;22.452;2023-03-04T02:34:28;99433.89;;;0.13;72.68
78431;BME280;67727;50.236;22.452;2023-03-04T02:36:57;99429.66;;;0.14;72.49
78431;BME280;67727;50.236;22.452;2023-03-04T02:42:20;99420.63;;;0.09;72.69
78431;BME280;67727;50.236;22.452;2023-03-04T02:44:47;99418.92;;;0.07;72.65
78431;BME280;67727;50.236;22.452;2023-03-04T02:47:17;99420.63;;;0.05;72.89
78431;BME280;67727;50.236;22.452;2023-03-04T02:49:45;99417.80;;;0.03;72.84
78431;BME280;67727;50.236;22.452;2023-03-04T02:52:17;99416.98;;;0.00;72.99
78431;BME280;67727;50.236;22.452;2023-03-04T02:54:44;99415.74;;;-0.02;73.17
78431;BME280;67727;50.236;22.452;2023-03-04T02:57:13;99416.89;;;-0.05;73.17
78431;BME280;67727;50.236;22.452;2023-03-04T02:59:41;99418.02;;;-0.06;73.38
78431;BME280;67727;50.236;22.452;2023-03-04T03:02:08;99418.23;;;-0.05;73.31
78431;BME280;67727;50.236;22.452;2023-03-04T03:04:37;99414.84;;;-0.01;73.15
78431;BME280;67727;50.236;22.452;2023-03-04T03:07:05;99416.73;;;0.04;73.16
78431;BME280;67727;50.236;22.452;2023-03-04T03:09:32;99408.06;;;0.08;73.03
78431;BME280;67727;50.236;22.452;2023-03-04T03:11:59;99400.86;;;0.11;72.93
78431;BME280;67727;50.236;22.452;2023-03-04T03:14:26;99390.35;;;0.12;72.90
78431;BME280;67727;50.236;22.452;2023-03-04T03:16:53;99392.14;;;0.11;72.86
78431;BME280;67727;50.236;22.452;2023-03-04T03:19:20;99388.52;;;0.09;72.96
78431;BME280;67727;50.236;22.452;2023-03-04T03:21:47;99388.06;;;0.06;72.87
78431;BME280;67727;50.236;22.452;2023-03-04T03:24:15;99385.35;;;0.03;72.81
78431;BME280;67727;50.236;22.452;2023-03-04T03:26:42;99381.52;;;-0.02;73.00
78431;BME280;67727;50.236;22.452;2023-03-04T03:29:09;99381.01;;;-0.07;72.79
78431;BME280;67727;50.236;22.452;2023-03-04T03:31:36;99382.86;;;-0.08;72.80
78431;BME280;67727;50.236;22.452;2023-03-04T03:34:04;99380.15;;;-0.07;72.70
78431;BME280;67727;50.236;22.452;2023-03-04T03:36:31;99381.20;;;-0.02;72.70
78431;BME280;67727;50.236;22.452;2023-03-04T03:38:58;99371.02;;;0.02;72.69
78431;BME280;67727;50.236;22.452;2023-03-04T03:41:25;99374.83;;;0.04;72.71
78431;BME280;67727;50.236;22.452;2023-03-04T03:43:52;99374.66;;;0.04;72.75
78431;BME280;67727;50.236;22.452;2023-03-04T03:46:19;99370.27;;;0.03;72.82
78431;BME280;67727;50.236;22.452;2023-03-04T03:48:46;99367.33;;;0.00;72.99
78431;BME280;67727;50.236;22.452;2023-03-04T03:51:14;99363.15;;;-0.02;72.88
78431;BME280;67727;50.236;22.452;2023-03-04T03:53:41;99355.52;;;-0.05;73.00
78431;BME280;67727;50.236;22.452;2023-03-04T03:56:08;99355.95;;;-0.08;73.10
78431;BME280;67727;50.236;22.452;2023-03-04T03:58:35;99352.98;;;-0.12;73.12
78431;BME280;67727;50.236;22.452;2023-03-04T04:01:02;99347.28;;;-0.13;73.24
78431;BME280;67727;50.236;22.452;2023-03-04T04:03:29;99341.90;;;-0.10;73.23
78431;BME280;67727;50.236;22.452;2023-03-04T04:05:56;99341.45;;;-0.07;73.24
78431;BME280;67727;50.236;22.452;2023-03-04T04:08:23;99343.54;;;-0.03;73.18
78431;BME280;67727;50.236;22.452;2023-03-04T04:10:50;99333.18;;;0.02;72.95
78431;BME280;67727;50.236;22.452;2023-03-04T04:13:18;99329.41;;;0.03;73.08
78431;BME280;67727;50.236;22.452;2023-03-04T04:15:45;99330.69;;;0.02;73.03
78431;BME280;67727;50.236;22.452;2023-03-04T04:18:12;99324.27;;;0.00;72.99
78431;BME280;67727;50.236;22.452;2023-03-04T04:20:39;99316.14;;;-0.03;72.99
78431;BME280;67727;50.236;22.452;2023-03-04T04:23:06;99314.14;;;-0.06;73.16
78431;BME280;67727;50.236;22.452;2023-03-04T04:25:33;99310.33;;;-0.09;73.43
78431;BME280;67727;50.236;22.452;2023-03-04T04:28:00;99313.97;;;-0.11;73.26
78431;BME280;67727;50.236;22.452;2023-03-04T04:30:27;99321.40;;;-0.12;73.51
78431;BME280;67727;50.236;22.452;2023-03-04T04:32:54;99320.67;;;-0.14;73.59
78431;BME280;67727;50.236;22.452;2023-03-04T04:35:21;99327.06;;;-0.14;73.55
78431;BME280;67727;50.236;22.452;2023-03-04T04:37:48;99312.11;;;-0.11;73.68
78431;BME280;67727;50.236;22.452;2023-03-04T04:40:15;99312.14;;;-0.07;73.49
78431;BME280;67727;50.236;22.452;2023-03-04T04:42:42;99308.76;;;-0.02;73.49
78431;BME280;67727;50.236;22.452;2023-03-04T04:45:10;99313.55;;;0.04;73.61
78431;BME280;67727;50.236;22.452;2023-03-04T04:47:37;99308.23;;;0.07;73.43
78431;BME280;67727;50.236;22.452;2023-03-04T04:50:04;99309.84;;;0.09;73.38
78431;BME280;67727;50.236;22.452;2023-03-04T04:52:32;99304.52;;;0.08;73.27
78431;BME280;67727;50.236;22.452;2023-03-04T04:54:59;99304.21;;;0.08;73.47
78431;BME280;67727;50.236;22.452;2023-03-04T04:57:26;99300.48;;;0.06;73.59
78431;BME280;67727;50.236;22.452;2023-03-04T04:59:53;99302.56;;;0.04;73.70
78431;BME280;67727;50.236;22.452;2023-03-04T05:02:20;99295.00;;;0.01;73.71
78431;BME280;67727;50.236;22.452;2023-03-04T05:04:47;99287.88;;;-0.01;73.77
78431;BME280;67727;50.236;22.452;2023-03-04T05:07:14;99285.29;;;-0.04;73.88
78431;BME280;67727;50.236;22.452;2023-03-04T05:09:41;99270.69;;;-0.04;73.79
78431;BME280;67727;50.236;22.452;2023-03-04T05:12:09;99263.92;;;0.01;73.91
78431;BME280;67727;50.236;22.452;2023-03-04T05:14:36;99251.36;;;0.06;73.79
78431;BME280;67727;50.236;22.452;2023-03-04T05:17:03;99235.78;;;0.12;74.01
78431;BME280;67727;50.236;22.452;2023-03-04T05:19:30;99227.98;;;0.16;73.81
78431;BME280;67727;50.236;22.452;2023-03-04T05:21:57;99228.90;;;0.19;73.77
78431;BME280;67727;50.236;22.452;2023-03-04T05:24:24;99223.90;;;0.21;73.90
78431;BME280;67727;50.236;22.452;2023-03-04T05:26:51;99228.13;;;0.21;73.84
78431;BME280;67727;50.236;22.452;2023-03-04T05:29:18;99232.33;;;0.18;73.84
78431;BME280;67727;50.236;22.452;2023-03-04T05:31:45;99237.56;;;0.16;73.76
78431;BME280;67727;50.236;22.452;2023-03-04T05:34:12;99236.38;;;0.13;73.91
78431;BME280;67727;50.236;22.452;2023-03-04T05:36:39;99237.33;;;0.10;73.93
78431;BME280;67727;50.236;22.452;2023-03-04T05:39:06;99246.02;;;0.10;74.09
78431;BME280;67727;50.236;22.452;2023-03-04T05:41:33;99242.83;;;0.13;73.91
78431;BME280;67727;50.236;22.452;2023-03-04T05:44:00;99239.65;;;0.18;73.95
78431;BME280;67727;50.236;22.452;2023-03-04T05:46:27;99238.55;;;0.23;73.83
78431;BME280;67727;50.236;22.452;2023-03-04T05:48:54;99240.95;;;0.28;73.82
78431;BME280;67727;50.236;22.452;2023-03-04T05:51:22;99242.23;;;0.32;73.68
78431;BME280;67727;50.236;22.452;2023-03-04T05:53:50;99237.91;;;0.33;73.56
78431;BME280;67727;50.236;22.452;2023-03-04T05:56:18;99232.85;;;0.34;73.58
78431;BME280;67727;50.236;22.452;2023-03-04T05:58:45;99231.17;;;0.31;73.64
78431;BME280;67727;50.236;22.452;2023-03-04T06:01:15;99231.79;;;0.30;73.58
78431;BME280;67727;50.236;22.452;2023-03-04T06:03:42;99236.59;;;0.28;73.63
78431;BME280;67727;50.236;22.452;2023-03-04T06:06:10;99234.63;;;0.26;73.49
78431;BME280;67727;50.236;22.452;2023-03-04T06:08:37;99235.56;;;0.28;73.49
78431;BME280;67727;50.236;22.452;2023-03-04T06:11:05;99241.96;;;0.33;73.46
78431;BME280;67727;50.236;22.452;2023-03-04T06:13:33;99240.08;;;0.39;73.38
78431;BME280;67727;50.236;22.452;2023-03-04T06:16:00;99244.52;;;0.46;73.21
78431;BME280;67727;50.236;22.452;2023-03-04T06:18:28;99247.67;;;0.52;73.11
78431;BME280;67727;50.236;22.452;2023-03-04T06:20:57;99247.23;;;0.55;72.88
78431;BME280;67727;50.236;22.452;2023-03-04T06:23:25;99251.45;;;0.57;72.71
78431;BME280;67727;50.236;22.452;2023-03-04T06:25:53;99255.92;;;0.58;72.47
78431;BME280;67727;50.236;22.452;2023-03-04T06:28:21;99254.73;;;0.55;72.47
78431;BME280;67727;50.236;22.452;2023-03-04T06:30:52;99253.43;;;0.54;72.64
78431;BME280;67727;50.236;22.452;2023-03-04T06:33:20;99260.19;;;0.54;72.70
78431;BME280;67727;50.236;22.452;2023-03-04T06:35:47;99256.53;;;0.54;72.69
78431;BME280;67727;50.236;22.452;2023-03-04T06:38:14;99256.21;;;0.56;72.42
78431;BME280;67727;50.236;22.452;2023-03-04T06:40:41;99258.08;;;0.61;72.28
78431;BME280;67727;50.236;22.452;2023-03-04T06:43:09;99257.33;;;0.68;72.40
78431;BME280;67727;50.236;22.452;2023-03-04T06:45:38;99260.90;;;0.75;72.31
78431;BME280;67727;50.236;22.452;2023-03-04T06:48:05;99266.48;;;0.82;72.02
78431;BME280;67727;50.236;22.452;2023-03-04T06:50:33;99271.21;;;0.86;71.58
78431;BME280;67727;50.236;22.452;2023-03-04T06:53:00;99275.84;;;0.87;71.56
78431;BME280;67727;50.236;22.452;2023-03-04T06:55:27;99277.73;;;0.87;71.55
78431;BME280;67727;50.236;22.452;2023-03-04T06:57:54;99275.31;;;0.87;71.63
78431;BME280;67727;50.236;22.452;2023-03-04T07:00:21;99278.25;;;0.87;71.72
78431;BME280;67727;50.236;22.452;2023-03-04T07:02:50;99285.61;;;0.86;71.30
78431;BME280;67727;50.236;22.452;2023-03-04T07:05:18;99280.16;;;0.87;71.32
78431;BME280;67727;50.236;22.452;2023-03-04T07:07:45;99279.69;;;0.93;71.34
78431;BME280;67727;50.236;22.452;2023-03-04T07:10:12;99286.80;;;0.97;70.66
78431;BME280;67727;50.236;22.452;2023-03-04T07:12:39;99285.17;;;1.00;70.99
78431;BME280;67727;50.236;22.452;2023-03-04T07:15:07;99280.75;;;1.03;70.74
78431;BME280;67727;50.236;22.452;2023-03-04T07:17:34;99288.69;;;1.01;70.25
78431;BME280;67727;50.236;22.452;2023-03-04T07:20:01;99286.98;;;0.99;69.84
78431;BME280;67727;50.236;22.452;2023-03-04T07:22:28;99284.27;;;0.98;70.16
78431;BME280;67727;50.236;22.452;2023-03-04T07:24:55;99283.53;;;0.96;69.96
78431;BME280;67727;50.236;22.452;2023-03-04T07:27:22;99285.20;;;0.95;70.23
78431;BME280;67727;50.236;22.452;2023-03-04T07:29:50;99282.68;;;0.96;70.07
78431;BME280;67727;50.236;22.452;2023-03-04T07:32:17;99280.58;;;1.01;70.43
78431;BME280;67727;50.236;22.452;2023-03-04T07:34:44;99280.56;;;1.07;70.30
78431;BME280;67727;50.236;22.452;2023-03-04T07:37:11;99280.53;;;1.14;69.91
78431;BME280;67727;50.236;22.452;2023-03-04T07:39:38;99280.41;;;1.20;70.23
78431;BME280;67727;50.236;22.452;2023-03-04T07:42:05;99279.43;;;1.21;69.74
78431;BME280;67727;50.236;22.452;2023-03-04T07:44:32;99288.58;;;1.20;69.95
78431;BME280;67727;50.236;22.452;2023-03-04T07:46:59;99285.73;;;1.18;70.00
78431;BME280;67727;50.236;22.452;2023-03-04T07:49:26;99283.13;;;1.16;69.99
78431;BME280;67727;50.236;22.452;2023-03-04T07:51:53;99284.08;;;1.13;69.77
78431;BME280;67727;50.236;22.452;2023-03-04T07:54:21;99282.31;;;1.09;69.91
78431;BME280;67727;50.236;22.452;2023-03-04T07:56:48;99279.25;;;1.08;69.84
78431;BME280;67727;50.236;22.452;2023-03-04T07:59:15;99276.60;;;1.11;69.52
78431;BME280;67727;50.236;22.452;2023-03-04T08:01:42;99276.00;;;1.14;69.62
78431;BME280;67727;50.236;22.452;2023-03-04T08:04:09;99272.27;;;1.17;69.41
78431;BME280;67727;50.236;22.452;2023-03-04T08:06:36;99269.77;;;1.17;69.55
78431;BME280;67727;50.236;22.452;2023-03-04T08:09:05;99264.30;;;1.19;69.89
78431;BME280;67727;50.236;22.452;2023-03-04T08:11:34;99271.60;;;1.19;69.49
78431;BME280;67727;50.236;22.452;2023-03-04T08:14:02;99272.44;;;1.15;69.58
78431;BME280;67727;50.236;22.452;2023-03-04T08:16:29;99273.08;;;1.11;69.55
78431;BME280;67727;50.236;22.452;2023-03-04T08:18:59;99272.55;;;1.07;69.37
78431;BME280;67727;50.236;22.452;2023-03-04T08:21:27;99270.45;;;1.05;69.37
78431;BME280;67727;50.236;22.452;2023-03-04T08:23:56;99264.89;;;1.07;69.36
78431;BME280;67727;50.236;22.452;2023-03-04T08:26:28;99267.89;;;1.11;69.28
78431;BME280;67727;50.236;22.452;2023-03-04T08:28:56;99269.08;;;1.11;68.95
78431;BME280;67727;50.236;22.452;2023-03-04T08:31:23;99267.75;;;1.11;69.30
78431;BME280;67727;50.236;22.452;2023-03-04T08:33:51;99257.67;;;1.10;68.98
78431;BME280;67727;50.236;22.452;2023-03-04T08:36:19;99255.96;;;1.08;68.85
78431;BME280;67727;50.236;22.452;2023-03-04T08:38:46;99250.02;;;1.04;68.79
78431;BME280;67727;50.236;22.452;2023-03-04T08:41:14;99252.49;;;1.03;69.05
78431;BME280;67727;50.236;22.452;2023-03-04T08:43:42;99261.36;;;1.04;68.80
78431;BME280;67727;50.236;22.452;2023-03-04T08:46:09;99257.90;;;1.03;67.95
78431;BME280;67727;50.236;22.452;2023-03-04T08:48:36;99263.73;;;1.04;67.08
78431;BME280;67727;50.236;22.452;2023-03-04T08:51:08;99267.95;;;1.06;66.88
78431;BME280;67727;50.236;22.452;2023-03-04T08:53:36;99271.23;;;1.04;66.37
78431;BME280;67727;50.236;22.452;2023-03-04T08:56:04;99274.13;;;1.01;66.78
78431;BME280;67727;50.236;22.452;2023-03-04T08:58:32;99280.89;;;0.99;66.74
78431;BME280;67727;50.236;22.452;2023-03-04T09:01:00;99280.90;;;0.97;67.00
78431;BME280;67727;50.236;22.452;2023-03-04T09:03:27;99278.48;;;0.92;67.02
78431;BME280;67727;50.236;22.452;2023-03-04T09:05:55;99279.41;;;0.90;67.39
78431;BME280;67727;50.236;22.452;2023-03-04T09:08:22;99278.12;;;0.93;67.84
78431;BME280;67727;50.236;22.452;2023-03-04T09:10:52;99283.05;;;0.98;67.79
78431;BME280;67727;50.236;22.452;2023-03-04T09:13:21;99279.90;;;1.02;67.65
78431;BME280;67727;50.236;22.452;2023-03-04T09:15:50;99283.50;;;1.03;67.35
78431;BME280;67727;50.236;22.452;2023-03-04T09:18:19;99278.53;;;1.00;67.30
78431;BME280;67727;50.236;22.452;2023-03-04T09:20:47;99285.38;;;0.97;67.63
78431;BME280;67727;50.236;22.452;2023-03-04T09:23:14;99280.08;;;0.94;67.62
78431;BME280;67727;50.236;22.452;2023-03-04T09:25:42;99280.02;;;0.91;67.95
78431;BME280;67727;50.236;22.452;2023-03-04T09:28:11;99279.77;;;0.88;68.22
78431;BME280;67727;50.236;22.452;2023-03-04T09:30:38;99279.66;;;0.87;68.01
78431;BME280;67727;50.236;22.452;2023-03-04T09:33:05;99280.57;;;0.86;68.14
78431;BME280;67727;50.236;22.452;2023-03-04T09:35:32;99279.14;;;0.89;68.16
78431;BME280;67727;50.236;22.452;2023-03-04T09:37:59;99278.92;;;0.93;68.11
78431;BME280;67727;50.236;22.452;2023-03-04T09:40:36;99280.98;;;1.00;67.98
78431;BME280;67727;50.236;22.452;2023-03-04T09:43:12;99275.56;;;1.06;67.67
78431;BME280;67727;50.236;22.452;2023-03-04T09:45:46;99275.32;;;1.11;67.31
78431;BME280;67727;50.236;22.452;2023-03-04T09:48:17;99274.45;;;1.11;67.29
78431;BME280;67727;50.236;22.452;2023-03-04T09:53:43;99268.45;;;1.08;67.28
78431;BME280;67727;50.236;22.452;2023-03-04T09:56:13;99263.59;;;1.06;67.33
78431;BME280;67727;50.236;22.452;2023-03-04T10:01:40;99260.16;;;0.97;67.63
78431;BME280;67727;50.236;22.452;2023-03-04T10:04:15;99265.02;;;0.97;67.60
78431;BME280;67727;50.236;22.452;2023-03-04T10:06:43;99260.80;;;1.00;67.75
78431;BME280;67727;50.236;22.452;2023-03-04T10:09:21;99255.53;;;1.02;67.59
78431;BME280;67727;50.236;22.452;2023-03-04T10:12:00;99255.78;;;1.04;67.86
78431;BME280;67727;50.236;22.452;2023-03-04T10:14:38;99253.28;;;1.02;67.94
78431;BME280;67727;50.236;22.452;2023-03-04T10:17:22;99248.20;;;0.99;68.02
78431;BME280;67727;50.236;22.452;2023-03-04T10:19:58;99250.47;;;0.97;68.45
78431;BME280;67727;50.236;22.452;2023-03-04T10:22:41;99249.09;;;0.94;68.18
78431;BME280;67727;50.236;22.452;2023-03-04T10:25:23;99248.95;;;0.96;68.20
78431;BME280;67727;50.236;22.452;2023-03-04T10:28:01;99245.81;;;1.02;68.42
78431;BME280;67727;50.236;22.452;2023-03-04T10:33:17;99241.31;;;1.17;67.83
78431;BME280;67727;50.236;22.452;2023-03-04T10:35:50;99237.27;;;1.19;67.81
78431;BME280;67727;50.236;22.452;2023-03-04T10:38:20;99233.55;;;1.20;68.32
78431;BME280;67727;50.236;22.452;2023-03-04T10:40:48;99233.91;;;1.20;68.22
78431;BME280;67727;50.236;22.452;2023-03-04T10:43:17;99231.52;;;1.20;68.21
78431;BME280;67727;50.236;22.452;2023-03-04T10:45:46;99228.84;;;1.18;68.21
78431;BME280;67727;50.236;22.452;2023-03-04T10:48:32;99229.83;;;1.17;67.85
78431;BME280;67727;50.236;22.452;2023-03-04T10:51:21;99227.66;;;1.16;67.98
78431;BME280;67727;50.236;22.452;2023-03-04T10:54:04;99217.81;;;1.15;67.89
78431;BME280;67727;50.236;22.452;2023-03-04T10:59:33;99217.48;;;1.27;67.61
78431;BME280;67727;50.236;22.452;2023-03-04T11:02:17;99212.48;;;1.32;67.23
78431;BME280;67727;50.236;22.452;2023-03-04T11:05:05;99210.84;;;1.33;66.73
78431;BME280;67727;50.236;22.452;2023-03-04T11:07:39;99208.64;;;1.30;66.97
78431;BME280;67727;50.236;22.452;2023-03-04T11:10:23;99203.55;;;1.29;67.03
78431;BME280;67727;50.236;22.452;2023-03-04T11:12:55;99206.44;;;1.28;67.02
78431;BME280;67727;50.236;22.452;2023-03-04T11:15:27;99202.75;;;1.28;67.18
78431;BME280;67727;50.236;22.452;2023-03-04T11:18:04;99201.90;;;1.28;67.27
78431;BME280;67727;50.236;22.452;2023-03-04T11:20:33;99199.56;;;1.27;67.03
78431;BME280;67727;50.236;22.452;2023-03-04T11:23:10;99199.17;;;1.25;66.94
78431;BME280;67727;50.236;22.452;2023-03-04T11:25:42;99197.80;;;1.27;66.83
78431;BME280;67727;50.236;22.452;2023-03-04T11:28:22;99198.36;;;1.31;66.71
78431;BME280;67727;50.236;22.452;2023-03-04T11:31:02;99189.07;;;1.33;66.79
78431;BME280;67727;50.236;22.452;2023-03-04T11:33:50;99183.94;;;1.34;66.69
78431;BME280;67727;50.236;22.452;2023-03-04T11:39:07;99186.44;;;1.36;66.77
78431;BME280;67727;50.236;22.452;2023-03-04T11:41:43;99182.92;;;1.34;66.53
78431;BME280;67727;50.236;22.452;2023-03-04T11:44:13;99172.11;;;1.32;66.52
78431;BME280;67727;50.236;22.452;2023-03-04T12:33:26;99126.17;;;1.74;65.71
78431;BME280;67727;50.236;22.452;2023-03-04T12:38:56;99125.95;;;1.71;65.60
78431;BME280;67727;50.236;22.452;2023-03-04T12:41:42;99129.05;;;1.67;65.97
78431;BME280;67727;50.236;22.452;2023-03-04T12:55:09;99129.96;;;1.75;66.03
78431;BME280;67727;50.236;22.452;2023-03-04T12:57:37;99125.79;;;1.73;66.44
78431;BME280;67727;50.236;22.452;2023-03-04T13:10:46;99122.64;;;1.65;66.95
78431;BME280;67727;50.236;22.452;2023-03-04T13:13:45;99123.54;;;1.64;66.73
78431;BME280;67727;50.236;22.452;2023-03-04T13:16:39;99113.92;;;1.67;66.89
78431;BME280;67727;50.236;22.452;2023-03-04T13:19:41;99112.85;;;1.73;66.73
78431;BME280;67727;50.236;22.452;2023-03-04T13:25:00;99114.01;;;1.90;66.57
78431;BME280;67727;50.236;22.452;2023-03-04T13:27:47;99111.84;;;1.95;66.71
78431;BME280;67727;50.236;22.452;2023-03-04T13:51:37;99090.52;;;1.92;66.98
78431;BME280;67727;50.236;22.452;2023-03-04T13:57:18;99081.09;;;2.03;66.89
78431;BME280;67727;50.236;22.452;2023-03-04T13:59:55;99077.79;;;2.09;66.84
78431;BME280;67727;50.236;22.452;2023-03-04T14:02:24;99072.27;;;2.12;66.86
78431;BME280;67727;50.236;22.452;2023-03-04T14:07:26;99069.26;;;2.15;67.06
78431;BME280;67727;50.236;22.452;2023-03-04T14:09:58;99066.39;;;2.15;66.78
78431;BME280;67727;50.236;22.452;2023-03-04T14:12:28;99060.15;;;2.15;67.07
78431;BME280;67727;50.236;22.452;2023-03-04T14:14:58;99056.41;;;2.14;67.00
78431;BME280;67727;50.236;22.452;2023-03-04T14:17:29;99051.33;;;2.12;67.15
78431;BME280;67727;50.236;22.452;2023-03-04T14:19:58;99049.48;;;2.14;66.97
78431;BME280;67727;50.236;22.452;2023-03-04T14:27:40;99054.27;;;2.26;66.96
78431;BME280;67727;50.236;22.452;2023-03-04T14:30:19;99048.61;;;2.25;66.90
78431;BME280;67727;50.236;22.452;2023-03-04T14:32:46;99050.34;;;2.23;67.29
78431;BME280;67727;50.236;22.452;2023-03-04T14:35:23;99052.17;;;2.21;67.36
78431;BME280;67727;50.236;22.452;2023-03-04T14:40:41;99057.15;;;2.15;67.76
78431;BME280;67727;50.236;22.452;2023-03-04T14:43:17;99054.48;;;2.10;67.58
78431;BME280;67727;50.236;22.452;2023-03-04T14:45:46;99052.60;;;2.07;67.96
78431;BME280;67727;50.236;22.452;2023-03-04T14:48:32;99054.70;;;2.04;67.99
78431;BME280;67727;50.236;22.452;2023-03-04T14:51:00;99060.77;;;2.07;68.20
78431;BME280;67727;50.236;22.452;2023-03-04T14:53:29;99056.05;;;2.08;68.26
78431;BME280;67727;50.236;22.452;2023-03-04T14:56:08;99059.67;;;2.09;68.35
78431;BME280;67727;50.236;22.452;2023-03-04T14:58:38;99060.52;;;2.08;68.46
78431;BME280;67727;50.236;22.452;2023-03-04T15:01:19;99060.02;;;2.05;68.53
78431;BME280;67727;50.236;22.452;2023-03-04T15:03:59;99055.50;;;2.03;68.84
78431;BME280;67727;50.236;22.452;2023-03-04T15:06:30;99054.86;;;2.03;68.84
78431;BME280;67727;50.236;22.452;2023-03-04T15:09:02;99052.79;;;2.01;69.05
78431;BME280;67727;50.236;22.452;2023-03-04T15:11:53;99046.96;;;1.99;69.23
78431;BME280;67727;50.236;22.452;2023-03-04T15:25:11;99042.90;;;1.98;69.61
78431;BME280;67727;50.236;22.452;2023-03-04T15:27:38;99044.91;;;1.95;69.96
78431;BME280;67727;50.236;22.452;2023-03-04T15:30:06;99044.94;;;1.88;70.01
78431;BME280;67727;50.236;22.452;2023-03-04T15:32:41;99046.73;;;1.84;70.12